Time;durP1;ratioP1;P1;durP2;ratioP2;P2;SDS_P1;SDS_P2;PMS_P1;PMS_P2;Temp;Humidity;BMP_temperature;BMP_pressure;BME280_temperature;BME280_humidity;BME280_pressure;Samples;Min_cycle;Max_cycle;Signal;HPM_P1;HPM_P2
2022/07/12 00:00:10;;;;;;;1.10;1.10;;;;;;;19.30;45.90;99794.31;5055679;28;20253;-70
2022/07/12 00:02:37;;;;;;;1.10;1.00;;;;;;;19.33;45.76;99804.59;5055119;28;20279;-70
2022/07/12 00:05:04;;;;;;;1.53;1.30;;;;;;;19.32;45.76;99802.97;5055352;28;20227;-70
2022/07/12 00:07:31;;;;;;;1.33;1.33;;;;;;;19.34;45.89;99800.84;5055282;28;20191;-70
2022/07/12 00:09:59;;;;;;;2.00;1.43;;;;;;;19.23;46.14;99805.25;5054958;28;20742;-70
2022/07/12 00:12:25;;;;;;;1.00;1.00;;;;;;;19.24;46.30;99806.06;5054954;28;20200;-70
2022/07/12 00:14:52;;;;;;;1.70;1.27;;;;;;;19.15;46.31;99813.69;5054815;28;20270;-70
2022/07/12 00:17:19;;;;;;;1.47;1.37;;;;;;;19.08;46.44;99818.41;5055710;28;20228;-70
2022/07/12 00:19:46;;;;;;;1.53;1.13;;;;;;;19.13;46.51;99812.31;5055083;28;20254;-70
2022/07/12 00:22:12;;;;;;;1.60;1.50;;;;;;;19.19;46.35;99814.03;5054935;28;20201;-70
2022/07/12 00:24:40;;;;;;;1.50;1.40;;;;;;;19.09;46.53;99813.84;5054733;28;20202;-70
2022/07/12 00:27:08;;;;;;;1.00;1.00;;;;;;;19.02;47.17;99813.19;5054673;28;20664;-70
2022/07/12 00:29:35;;;;;;;1.57;1.47;;;;;;;19.02;46.96;99811.31;5054821;28;20198;-70
2022/07/12 00:32:02;;;;;;;1.50;1.40;;;;;;;19.10;46.75;99816.31;5055225;28;20190;-70
2022/07/12 00:34:29;;;;;;;2.90;1.60;;;;;;;19.11;46.72;99817.13;5054478;28;20595;-70
2022/07/12 00:36:56;;;;;;;1.33;1.20;;;;;;;18.89;47.09;99819.69;5055357;28;20199;-70
2022/07/12 00:39:22;;;;;;;1.30;1.30;;;;;;;18.86;47.15;99827.41;5054420;28;20741;-70
2022/07/12 00:41:49;;;;;;;1.53;1.43;;;;;;;18.76;47.50;99830.75;5054488;28;20697;-70
2022/07/12 00:44:17;;;;;;;1.60;1.50;;;;;;;18.75;47.70;99825.63;5054554;28;20290;-70
2022/07/12 00:46:45;;;;;;;1.73;1.63;;;;;;;18.79;47.80;99822.19;5053459;28;20699;-70
2022/07/12 00:49:15;;;;;;;1.20;1.20;;;;;;;18.79;47.87;99810.63;5054286;28;20254;-70
2022/07/12 00:51:42;;;;;;;1.37;1.33;;;;;;;18.77;48.04;99820.81;5055356;28;20243;-70
2022/07/12 00:54:09;;;;;;;3.00;1.40;;;;;;;18.80;47.86;99823.00;5054091;28;20705;-70
2022/07/12 00:56:36;;;;;;;1.37;1.27;;;;;;;18.77;47.87;99815.41;5054048;28;20228;-70
2022/07/12 00:59:03;;;;;;;4.67;1.50;;;;;;;18.89;47.44;99819.69;5054276;28;20194;-70
2022/07/12 01:01:31;;;;;;;1.50;1.33;;;;;;;18.86;47.44;99819.34;5054578;28;20250;-70
2022/07/12 01:03:58;;;;;;;2.80;1.50;;;;;;;18.70;47.79;99818.25;5054286;28;20202;-70
2022/07/12 01:06:25;;;;;;;1.67;1.57;;;;;;;18.68;47.88;99822.25;5054278;28;20296;-70
2022/07/12 01:08:52;;;;;;;1.63;1.53;;;;;;;18.68;47.88;99822.25;5053882;28;20735;-70
2022/07/12 01:11:19;;;;;;;1.40;1.40;;;;;;;18.65;47.88;99825.41;5054707;28;20194;-70
2022/07/12 01:13:46;;;;;;;1.60;1.60;;;;;;;18.64;47.82;99799.56;5053715;28;20651;-70
2022/07/12 01:16:14;;;;;;;2.40;1.40;;;;;;;18.64;48.17;99821.91;5054135;28;20251;-70
2022/07/12 01:18:44;;;;;;;1.70;1.60;;;;;;;18.59;48.27;99818.31;5053628;28;20193;-70
2022/07/12 01:21:13;;;;;;;1.60;1.50;;;;;;;18.56;48.63;99814.22;5053667;28;20730;-70
2022/07/12 01:23:42;;;;;;;1.83;1.73;;;;;;;18.47;48.72;99812.97;5053576;28;20204;-70
2022/07/12 01:26:08;;;;;;;1.90;1.57;;;;;;;18.47;49.06;99804.06;5053531;28;20192;-70
2022/07/12 01:28:35;;;;;;;1.70;1.60;;;;;;;18.44;48.79;99810.75;5053470;28;20196;-70
2022/07/12 01:31:02;;;;;;;1.60;1.50;;;;;;;18.41;48.89;99807.72;5054067;28;20252;-70
2022/07/12 01:33:30;;;;;;;1.70;1.60;;;;;;;18.35;49.27;99805.97;5053351;28;20193;-70
2022/07/12 01:35:57;;;;;;;2.30;1.50;;;;;;;18.36;49.40;99807.63;5053319;28;20280;-70
2022/07/12 01:38:24;;;;;;;1.70;1.60;;;;;;;18.26;49.65;99810.88;5053317;28;20192;-70
2022/07/12 01:40:52;;;;;;;1.20;1.20;;;;;;;18.34;49.08;99810.53;5054074;28;20250;-70
2022/07/12 01:43:19;;;;;;;1.93;1.70;;;;;;;18.35;48.84;99808.66;5054174;28;20807;-70
2022/07/12 01:45:46;;;;;;;1.47;1.30;;;;;;;18.37;48.86;99803.84;5053169;28;20250;-70
2022/07/12 01:48:13;;;;;;;2.93;1.40;;;;;;;18.29;48.96;99807.72;5053698;28;20201;-70
2022/07/12 01:50:39;;;;;;;1.50;1.40;;;;;;;18.26;49.29;99802.81;5053383;28;20251;-70
2022/07/12 01:53:07;;;;;;;1.80;1.50;;;;;;;18.35;49.13;99808.66;5052980;28;20664;-70
2022/07/12 01:55:34;;;;;;;1.93;1.50;;;;;;;18.37;48.95;99803.84;5052842;28;20231;-70
2022/07/12 01:58:02;;;;;;;1.40;1.40;;;;;;;18.42;49.11;99812.06;5053326;28;20219;-70
2022/07/12 02:00:30;;;;;;;1.60;1.50;;;;;;;18.23;49.63;99810.53;5052850;28;20663;-70
2022/07/12 02:02:57;;;;;;;1.93;1.33;;;;;;;18.24;50.22;99820.25;5053148;28;20195;-70
2022/07/12 02:05:24;;;;;;;2.70;1.50;;;;;;;18.19;50.75;99814.75;5052723;28;20200;-70
2022/07/12 02:07:50;;;;;;;4.40;1.67;;;;;;;17.97;51.74;99813.75;5052643;28;20199;-70
2022/07/12 02:10:17;;;;;;;1.50;1.40;;;;;;;17.89;52.16;99820.28;5053577;28;20250;-70
2022/07/12 02:12:44;;;;;;;3.30;1.67;;;;;;;17.91;52.31;99822.75;5052710;28;20619;-70
2022/07/12 02:15:12;;;;;;;1.40;1.40;;;;;;;17.78;52.95;99825.69;5052593;28;20220;-70
2022/07/12 02:17:39;;;;;;;1.93;1.40;;;;;;;17.64;53.38;99821.59;5053412;28;20258;-70
2022/07/12 02:20:09;;;;;;;1.37;1.37;;;;;;;17.53;53.48;99823.22;5052581;28;20266;-70
2022/07/12 02:22:36;;;;;;;1.77;1.67;;;;;;;17.50;54.07;99822.84;5053676;28;20234;-70
2022/07/12 02:25:03;;;;;;;1.90;1.67;;;;;;;17.51;53.65;99824.53;5052386;28;20206;-70
2022/07/12 02:27:30;;;;;;;1.53;1.43;;;;;;;17.44;53.78;99821.13;5052968;28;20607;-70
2022/07/12 02:29:57;;;;;;;6.73;2.00;;;;;;;17.47;53.36;99820.66;5052391;28;20196;-70
2022/07/12 02:32:25;;;;;;;4.30;1.60;;;;;;;17.39;54.18;99821.75;5052959;28;20246;-70
2022/07/12 02:34:51;;;;;;;1.87;1.77;;;;;;;17.37;54.34;99823.06;5053363;28;20570;-70
2022/07/12 02:37:18;;;;;;;3.87;1.53;;;;;;;17.41;54.02;99818.88;5052580;28;20219;-70
2022/07/12 02:39:45;;;;;;;1.80;1.70;;;;;;;17.38;53.68;99819.31;5052810;28;20204;-70
2022/07/12 02:42:12;;;;;;;1.90;1.60;;;;;;;17.33;53.56;99822.72;5052416;28;20235;-70
2022/07/12 02:44:38;;;;;;;1.80;1.70;;;;;;;17.37;53.44;99823.06;5053236;28;20192;-70
2022/07/12 02:47:05;;;;;;;2.10;1.87;;;;;;;17.52;52.72;99828.84;5052107;28;20197;-70
2022/07/12 02:49:33;;;;;;;1.63;1.53;;;;;;;17.52;52.51;99826.16;5052020;28;20660;-70
2022/07/12 02:52:00;;;;;;;1.80;1.70;;;;;;;17.53;52.46;99817.84;5053142;28;20198;-69
2022/07/12 02:54:27;;;;;;;2.53;1.50;;;;;;;17.43;52.73;99808.75;5051914;28;20722;-70
2022/07/12 02:56:53;;;;;;;2.27;1.70;;;;;;;17.49;52.29;99829.28;5051986;28;20222;-70
2022/07/12 02:59:20;;;;;;;2.17;1.70;;;;;;;17.48;52.39;99819.59;5052278;28;20250;-70
2022/07/12 03:01:47;;;;;;;2.70;1.60;;;;;;;17.56;51.87;99827.31;5052117;28;20210;-70
2022/07/12 03:04:14;;;;;;;1.70;1.60;;;;;;;17.61;51.65;99822.06;5051889;28;20192;-70
2022/07/12 03:06:42;;;;;;;1.63;1.53;;;;;;;17.64;51.50;99830.47;5052181;28;20192;-70
2022/07/12 03:09:08;;;;;;;1.67;1.57;;;;;;;17.60;51.21;99831.19;5051847;28;20664;-70
2022/07/12 03:11:35;;;;;;;1.50;1.50;;;;;;;17.60;51.12;99833.88;5051928;28;20279;-71
2022/07/12 03:14:02;;;;;;;2.40;1.67;;;;;;;17.66;51.01;99832.91;5052579;28;20265;-70
2022/07/12 03:16:29;;;;;;;3.33;1.50;;;;;;;17.66;50.78;99830.22;5051765;28;20192;-70
2022/07/12 03:18:55;;;;;;;2.17;2.07;;;;;;;17.66;50.95;99831.06;5052690;28;20192;-70
2022/07/12 03:21:22;;;;;;;3.03;1.80;;;;;;;17.62;50.92;99835.25;5056166;28;20200;-70
2022/07/12 03:23:50;;;;;;;1.80;1.70;;;;;;;17.82;50.49;99842.97;5055805;28;20192;-70
2022/07/12 03:26:17;;;;;;;1.90;1.80;;;;;;;17.94;50.29;99841.09;5056136;28;20254;-70
2022/07/12 03:28:44;;;;;;;2.10;1.90;;;;;;;17.84;50.32;99832.81;5056069;28;20190;-70
2022/07/12 03:31:11;;;;;;;3.00;1.90;;;;;;;17.79;50.82;99843.44;5056264;28;20195;-70
2022/07/12 03:33:38;;;;;;;1.37;1.30;;;;;;;17.87;50.51;99845.75;5056498;28;20192;-70
2022/07/12 03:36:06;;;;;;;1.77;1.60;;;;;;;17.79;50.80;99848.81;5055561;28;20728;-70
2022/07/12 03:38:33;;;;;;;1.47;1.47;;;;;;;17.83;50.77;99844.59;5055915;28;20220;-70
2022/07/12 03:41:01;;;;;;;1.67;1.57;;;;;;;17.82;51.03;99846.50;5056490;28;20192;-70
2022/07/12 03:43:28;;;;;;;2.90;2.43;;;;;;;17.97;51.22;99857.56;5056073;28;20287;-70
2022/07/12 03:45:55;;;;;;;2.77;1.50;;;;;;;18.29;50.38;99856.13;5055494;28;20261;-70
2022/07/12 03:48:21;;;;;;;2.00;1.90;;;;;;;18.77;49.48;99861.16;5056238;28;20243;-70
2022/07/12 03:50:49;;;;;;;2.20;1.60;;;;;;;18.63;50.40;99866.00;5055649;28;20633;-70
2022/07/12 03:53:16;;;;;;;3.03;2.03;;;;;;;18.49;51.18;99866.53;5055879;28;20255;-71
2022/07/12 03:55:42;;;;;;;1.77;1.67;;;;;;;18.37;52.07;99863.03;5055188;28;20221;-70
2022/07/12 03:58:10;;;;;;;1.63;1.53;;;;;;;18.34;52.47;99874.28;5055837;28;20197;-70
2022/07/12 04:00:37;;;;;;;2.20;2.00;;;;;;;18.46;52.12;99875.09;5055446;28;20201;-70
2022/07/12 04:03:04;;;;;;;1.90;1.70;;;;;;;18.43;51.89;99878.25;5055772;28;20231;-70
2022/07/12 04:05:31;;;;;;;3.60;1.80;;;;;;;18.48;51.64;99870.28;5055075;28;20738;-71
2022/07/12 04:07:58;;;;;;;2.07;1.87;;;;;;;18.46;51.64;99877.78;5055820;28;20247;-71
2022/07/12 04:10:24;;;;;;;2.90;1.83;;;;;;;18.52;51.62;99884.88;5055860;28;20190;-71
2022/07/12 04:12:51;;;;;;;2.13;2.03;;;;;;;19.11;50.21;99881.75;5054792;28;20205;-71
2022/07/12 04:15:20;;;;;;;2.97;1.87;;;;;;;20.36;47.01;99875.72;5054970;28;20290;-70
2022/07/12 04:17:46;;;;;;;1.53;1.43;;;;;;;21.84;43.10;99884.91;5055695;28;20196;-70
2022/07/12 04:20:13;;;;;;;3.20;1.80;;;;;;;22.81;39.47;99885.19;5054535;28;20258;-70
2022/07/12 04:22:40;;;;;;;4.60;1.60;;;;;;;23.59;37.06;99893.78;5054731;28;20628;-70
2022/07/12 04:25:09;;;;;;;3.43;1.93;;;;;;;24.48;35.52;99894.78;5054946;28;20200;-69
2022/07/12 04:27:36;;;;;;;2.40;1.60;;;;;;;24.73;34.33;99899.34;5054595;28;20657;-69
2022/07/12 04:30:03;;;;;;;1.90;1.37;;;;;;;24.68;34.10;99894.75;5055175;28;20338;-70
2022/07/12 04:32:31;;;;;;;1.43;1.33;;;;;;;25.72;32.79;99904.47;5053708;28;20285;-70
2022/07/12 04:34:58;;;;;;;4.27;1.67;;;;;;;26.30;31.75;99897.97;5055183;28;20288;-70
2022/07/12 04:37:24;;;;;;;5.40;1.53;;;;;;;26.30;31.09;99903.41;5054702;28;20203;-70
2022/07/12 04:39:51;;;;;;;3.03;1.50;;;;;;;27.08;30.70;99901.94;5054743;28;20197;-70
2022/07/12 04:42:18;;;;;;;2.47;1.73;;;;;;;27.35;30.38;99900.22;5055260;28;20592;-69
2022/07/12 04:44:44;;;;;;;1.37;1.27;;;;;;;28.27;29.10;99904.69;5054194;28;20636;-69
2022/07/12 04:47:11;;;;;;;4.77;1.67;;;;;;;28.87;27.77;99905.44;5054903;28;20610;-69
2022/07/12 04:49:39;;;;;;;1.60;1.50;;;;;;;29.43;27.03;99913.25;5054097;28;20204;-69
2022/07/12 04:52:07;;;;;;;1.93;1.30;;;;;;;29.19;27.12;99911.59;5054402;28;20199;-69
2022/07/12 04:54:34;;;;;;;2.00;1.87;;;;;;;29.37;27.11;99915.31;5053943;28;20243;-69
2022/07/12 04:57:00;;;;;;;1.90;1.20;;;;;;;29.27;26.59;99921.00;5054016;28;20192;-69
2022/07/12 04:59:27;;;;;;;2.83;1.17;;;;;;;29.41;26.39;99919.03;5053945;28;20295;-69
2022/07/12 05:01:54;;;;;;;8.07;1.33;;;;;;;29.43;26.62;99911.31;5054337;28;20196;-70
2022/07/12 05:04:21;;;;;;;1.17;1.10;;;;;;;29.64;25.84;99920.69;5053847;28;20192;-70
2022/07/12 05:06:49;;;;;;;6.47;1.23;;;;;;;29.86;25.67;99917.97;5053767;28;20193;-69
2022/07/12 05:09:16;;;;;;;2.40;1.27;;;;;;;28.88;26.43;99918.00;5054010;28;20188;-69
2022/07/12 05:11:43;;;;;;;4.23;1.30;;;;;;;29.40;26.40;99925.66;5053702;28;20197;-68
2022/07/12 05:14:10;;;;;;;2.97;1.53;;;;;;;30.13;25.47;99928.78;5053926;28;20192;-68
2022/07/12 05:16:36;;;;;;;3.67;1.20;;;;;;;30.46;25.48;99923.84;5054386;28;20220;-68
2022/07/12 05:19:03;;;;;;;7.00;1.63;;;;;;;30.54;25.42;99923.84;5053866;28;20189;-68
2022/07/12 05:21:30;;;;;;;4.43;1.30;;;;;;;30.20;25.26;99920.94;5053551;28;20726;-69
2022/07/12 05:23:58;;;;;;;2.93;1.20;;;;;;;30.04;25.23;99919.69;5053618;28;20193;-68
2022/07/12 05:26:25;;;;;;;5.17;1.40;;;;;;;29.90;25.34;99913.50;5053791;28;20725;-69
2022/07/12 05:28:52;;;;;;;4.10;1.20;;;;;;;29.92;25.28;99922.19;5053669;28;20193;-68
2022/07/12 05:31:18;;;;;;;6.50;1.77;;;;;;;29.55;25.99;99914.31;5053670;28;20197;-69
2022/07/12 05:33:45;;;;;;;1.13;1.13;;;;;;;29.37;26.24;99917.22;5050012;28;20586;-68
2022/07/12 05:36:12;;;;;;;2.97;1.33;;;;;;;30.05;25.75;99923.25;5053618;28;20217;-69
2022/07/12 05:38:39;;;;;;;2.07;1.40;;;;;;;30.63;25.55;99932.13;5053126;28;20192;-69
2022/07/12 05:41:07;;;;;;;5.20;1.40;;;;;;;30.59;24.74;99925.66;5052884;28;20192;-70
2022/07/12 05:43:34;;;;;;;2.17;1.63;;;;;;;30.24;25.75;99923.88;5053120;28;20184;-69
2022/07/12 05:46:01;;;;;;;2.00;1.20;;;;;;;30.51;24.78;99930.00;5052917;28;20266;-69
2022/07/12 05:48:27;;;;;;;2.20;1.40;;;;;;;31.01;24.48;99923.09;5052848;28;20189;-69
2022/07/12 05:50:54;;;;;;;3.77;1.43;;;;;;;30.53;25.20;99922.25;5053386;28;20208;-69
2022/07/12 05:53:23;;;;;;;4.03;1.03;;;;;;;30.67;24.84;99924.88;5052786;28;20722;-69
2022/07/12 05:55:51;;;;;;;10.33;1.83;;;;;;;30.43;24.44;99936.25;5053018;28;20621;-69
2022/07/12 05:58:20;;;;;;;8.20;1.50;;;;;;;29.85;24.95;99927.31;5052670;28;20737;-69
2022/07/12 06:00:47;;;;;;;2.83;1.40;;;;;;;29.66;25.45;99923.13;5052687;28;20192;-69
2022/07/12 06:03:14;;;;;;;3.20;1.27;;;;;;;29.63;25.21;99918.28;5052583;28;20228;-69
2022/07/12 06:05:41;;;;;;;2.43;1.30;;;;;;;29.22;25.86;99921.13;5052624;28;20620;-69
2022/07/12 06:08:08;;;;;;;5.90;1.43;;;;;;;29.33;25.82;99924.44;5052522;28;20664;-69
2022/07/12 06:10:35;;;;;;;6.30;1.30;;;;;;;29.30;26.00;99925.84;5052617;28;20605;-69
2022/07/12 06:13:02;;;;;;;1.40;1.30;;;;;;;29.62;25.29;99917.47;5052715;28;20621;-69
2022/07/12 06:15:30;;;;;;;2.00;1.40;;;;;;;29.71;25.24;99915.59;5052360;28;20220;-68
2022/07/12 06:17:57;;;;;;;6.33;1.60;;;;;;;29.80;25.82;99907.47;5052911;28;20203;-69
2022/07/12 06:20:25;;;;;;;2.40;1.47;;;;;;;29.21;26.16;99900.34;5052561;28;20189;-69
2022/07/12 06:22:52;;;;;;;2.40;1.10;;;;;;;28.17;27.72;99907.59;5052594;28;20192;-69
2022/07/12 06:25:18;;;;;;;8.83;1.37;;;;;;;28.29;27.96;99898.91;5052432;28;20196;-69
2022/07/12 06:27:47;;;;;;;3.67;1.53;;;;;;;28.54;27.35;99902.00;5053041;28;20200;-69
2022/07/12 06:30:16;;;;;;;4.67;1.63;;;;;;;29.00;27.26;99912.84;5052871;28;20193;-69
2022/07/12 06:32:44;;;;;;;3.77;1.37;;;;;;;29.09;26.98;99902.81;5052033;28;20200;-68
2022/07/12 06:35:11;;;;;;;2.97;1.40;;;;;;;28.77;27.71;99906.47;5052445;28;20342;-69
2022/07/12 06:37:38;;;;;;;1.87;1.30;;;;;;;28.73;27.17;99904.63;5052631;28;20193;-69
2022/07/12 06:40:06;;;;;;;4.80;1.40;;;;;;;28.11;28.03;99897.06;5051866;28;20220;-69
2022/07/12 06:42:33;;;;;;;1.47;1.27;;;;;;;28.00;29.30;99890.97;5051971;28;20234;-70
2022/07/12 06:45:00;;;;;;;8.00;1.60;;;;;;;28.78;27.61;99891.66;5052438;28;20274;-69
2022/07/12 06:47:26;;;;;;;1.50;1.37;;;;;;;28.52;27.94;99896.03;5051691;28;20617;-69
2022/07/12 06:49:54;;;;;;;4.57;1.60;;;;;;;28.36;28.38;99893.88;5052029;28;20193;-70
2022/07/12 06:52:21;;;;;;;2.77;1.50;;;;;;;28.85;28.04;99902.19;5052266;28;20246;-68
2022/07/12 06:54:48;;;;;;;4.50;1.40;;;;;;;29.17;27.04;99888.38;5051043;28;20193;-69
2022/07/12 06:57:15;;;;;;;3.70;1.77;;;;;;;29.04;27.17;99900.19;5051823;28;20231;-69
2022/07/12 06:59:42;;;;;;;1.47;1.30;;;;;;;28.98;27.69;99902.19;5051755;28;20196;-69
2022/07/12 07:02:08;;;;;;;7.27;1.60;;;;;;;29.18;27.62;99892.75;5051427;28;20189;-69
2022/07/12 07:04:35;;;;;;;9.40;1.67;;;;;;;29.20;27.49;99879.56;5051991;28;20204;-69
2022/07/12 07:07:04;;;;;;;1.40;1.07;;;;;;;29.31;27.58;99894.63;5052042;28;20254;-70
2022/07/12 07:09:30;;;;;;;4.97;1.30;;;;;;;29.39;27.35;99891.16;5051964;28;20204;-70
2022/07/12 07:11:57;;;;;;;7.57;1.70;;;;;;;28.90;27.87;99897.44;5051671;28;20657;-69
2022/07/12 07:14:24;;;;;;;3.33;1.10;;;;;;;28.91;27.43;99896.31;5051901;28;20585;-70
2022/07/12 07:16:51;;;;;;;9.70;1.40;;;;;;;29.20;27.11;99893.25;5051850;28;20225;-69
2022/07/12 07:19:17;;;;;;;4.37;1.07;;;;;;;29.06;27.26;99892.47;5051824;28;20276;-69
2022/07/12 07:21:44;;;;;;;9.90;1.70;;;;;;;29.08;27.17;99893.78;5052184;28;20197;-69
2022/07/12 07:24:12;;;;;;;8.47;2.10;;;;;;;28.68;27.70;99891.91;5050647;28;20287;-69
2022/07/12 07:26:39;;;;;;;16.43;1.90;;;;;;;28.21;28.00;99888.66;5051392;28;20250;-70
2022/07/12 07:32:01;;;;;;;2.93;1.30;;;;;;;28.60;28.22;99887.13;5010032;28;20204;-69
2022/07/12 07:34:28;;;;;;;1.43;1.33;;;;;;;29.03;27.61;99871.22;5041256;28;20192;-69
2022/07/12 07:36:55;;;;;;;2.50;1.40;;;;;;;29.15;27.49;99864.06;5051435;28;20246;-69
2022/07/12 07:39:23;;;;;;;3.10;1.47;;;;;;;29.14;27.85;99872.56;5051817;28;20224;-69
2022/07/12 07:41:50;;;;;;;4.03;1.33;;;;;;;29.50;27.56;99875.28;5051318;28;20225;-69
2022/07/12 07:44:16;;;;;;;8.13;1.87;;;;;;;29.48;27.15;99872.84;5051231;28;20197;-68
2022/07/12 07:46:43;;;;;;;1.83;1.37;;;;;;;29.61;27.26;99866.56;5051292;28;20254;-69
2022/07/12 07:49:10;;;;;;;7.13;1.90;;;;;;;29.72;27.08;99878.09;5051251;28;20645;-68
2022/07/12 07:51:36;;;;;;;5.67;1.13;;;;;;;29.73;26.75;99869.56;5051478;28;20197;-68
2022/07/12 07:54:03;;;;;;;4.53;1.30;;;;;;;29.65;26.76;99874.97;5052029;28;20193;-68
2022/07/12 07:56:32;;;;;;;5.00;1.20;;;;;;;30.19;26.67;99875.47;5051265;28;20225;-68
2022/07/12 07:58:58;;;;;;;6.13;1.50;;;;;;;29.94;26.81;99880.78;5051190;28;20196;-68
2022/07/12 08:01:42;;;;;;;3.40;1.33;;;;;;;29.52;25.77;99873.84;5051627;28;20192;-68
2022/07/12 08:04:09;;;;;;;1.57;1.10;;;;;;;29.55;25.09;99872.44;5051119;28;20224;-68
2022/07/12 08:06:36;;;;;;;4.03;0.97;;;;;;;30.13;25.49;99876.69;5054723;28;20235;-68
2022/07/12 08:09:04;;;;;;;1.97;1.10;;;;;;;29.70;24.84;99870.16;5055550;28;20189;-68
2022/07/12 08:11:32;;;;;;;3.03;1.13;;;;;;;29.67;25.13;99865.31;5055178;28;20193;-68
2022/07/12 08:13:59;;;;;;;2.83;1.00;;;;;;;29.57;25.81;99862.84;5054768;28;20660;-68
2022/07/12 08:16:25;;;;;;;2.90;1.30;;;;;;;29.88;25.84;99854.66;5054917;28;20216;-68
2022/07/12 08:18:52;;;;;;;2.40;0.90;;;;;;;30.11;24.90;99845.25;5054956;28;20224;-68
2022/07/12 08:21:19;;;;;;;5.50;1.60;;;;;;;29.99;25.84;99853.25;5055039;28;20189;-68
2022/07/12 08:23:46;;;;;;;5.47;1.30;;;;;;;29.90;24.76;99853.22;5054942;28;20246;-68
2022/07/12 08:26:13;;;;;;;2.70;0.87;;;;;;;29.95;25.03;99849.53;5054846;28;20292;-68
2022/07/12 08:28:41;;;;;;;5.90;1.30;;;;;;;30.15;24.71;99844.34;5054723;28;20197;-70
2022/07/12 08:31:08;;;;;;;3.00;0.93;;;;;;;30.15;24.63;99851.75;5054563;28;20734;-68
2022/07/12 08:33:34;;;;;;;3.60;1.13;;;;;;;30.64;23.92;99841.28;5054806;28;20195;-68
2022/07/12 08:36:01;;;;;;;11.27;1.60;;;;;;;30.19;24.37;99850.00;5054134;28;20712;-69
2022/07/12 08:38:30;;;;;;;7.07;1.40;;;;;;;30.26;24.58;99845.69;5054341;28;20196;-68
2022/07/12 08:40:57;;;;;;;2.87;1.00;;;;;;;29.61;24.31;99841.94;5054235;28;20682;-69
2022/07/12 08:43:24;;;;;;;3.10;0.97;;;;;;;30.36;24.33;99844.56;5054723;28;20235;-68
2022/07/12 08:45:52;;;;;;;1.33;0.97;;;;;;;30.61;24.02;99841.09;5054524;28;20196;-69
2022/07/12 08:48:19;;;;;;;2.90;1.10;;;;;;;30.25;24.39;99838.56;5054548;28;20200;-69
2022/07/12 08:51:01;;;;;;;2.77;1.30;;;;;;;30.97;23.30;99831.53;5053977;28;20244;-69
2022/07/12 08:53:27;;;;;;;4.33;1.23;;;;;;;31.04;22.99;99839.28;5054477;28;20192;-69
2022/07/12 08:55:54;;;;;;;2.40;1.10;;;;;;;31.17;23.07;99830.91;5053921;28;20668;-69
2022/07/12 08:58:21;;;;;;;3.57;1.20;;;;;;;31.18;23.19;99840.75;5055088;28;20200;-69
2022/07/12 09:00:47;;;;;;;4.90;1.03;;;;;;;30.57;22.88;99840.94;5053952;28;20651;-70
2022/07/12 09:03:16;;;;;;;3.33;0.87;;;;;;;30.40;23.21;99829.09;5053757;28;20250;-69
2022/07/12 09:05:49;;;;;;;3.53;1.03;;;;;;;30.99;23.19;99822.97;5053436;28;20721;-69
2022/07/12 09:08:16;;;;;;;4.80;1.50;;;;;;;31.51;23.08;99830.91;5053560;28;20184;-69
2022/07/12 09:10:54;;;;;;;1.73;0.90;;;;;;;31.31;23.01;99831.56;5054116;28;20192;-69
2022/07/12 09:13:22;;;;;;;3.50;1.03;;;;;;;31.33;22.80;99831.25;5054216;28;20644;-70
2022/07/12 09:15:50;;;;;;;5.47;1.53;;;;;;;31.12;23.45;99827.50;5053205;28;20734;-69
2022/07/12 09:18:25;;;;;;;6.70;1.23;;;;;;;31.66;22.57;99805.66;5052993;28;20197;-69
2022/07/12 09:20:53;;;;;;;7.30;1.10;;;;;;;31.52;22.56;99813.28;5053881;28;20560;-69
2022/07/12 09:23:20;;;;;;;2.87;1.00;;;;;;;31.21;22.68;99818.16;5053440;28;20283;-68
2022/07/12 09:25:48;;;;;;;4.23;1.10;;;;;;;31.38;21.89;99818.16;5053588;28;20258;-69
2022/07/12 09:28:15;;;;;;;2.20;0.70;;;;;;;30.91;21.22;99813.59;5054079;28;20192;-69
2022/07/12 09:30:49;;;;;;;2.30;0.93;;;;;;;30.56;22.27;99805.59;5053214;28;20613;-69
2022/07/12 09:36:09;;;;;;;7.70;1.10;;;;;;;29.82;23.57;99798.38;5053199;28;20184;-69
2022/07/12 09:38:36;;;;;;;5.63;1.27;;;;;;;30.09;23.84;99793.50;5053230;28;20184;-69
2022/07/12 09:41:03;;;;;;;7.97;1.67;;;;;;;30.16;22.25;99802.09;5053175;28;20197;-69
2022/07/12 09:43:31;;;;;;;5.80;1.00;;;;;;;29.90;22.31;99803.91;5054196;28;20189;-69
2022/07/12 09:45:58;;;;;;;2.23;0.77;;;;;;;30.32;21.77;99805.22;5053348;28;20267;-70
2022/07/12 09:48:28;;;;;;;4.10;1.10;;;;;;;30.30;22.01;99791.84;5053556;28;20619;-69
2022/07/12 09:50:56;;;;;;;2.27;1.07;;;;;;;30.03;22.55;99802.16;5053020;28;20280;-69
2022/07/12 09:53:31;;;;;;;6.10;1.27;;;;;;;30.25;22.37;99796.66;5053131;28;20224;-69
2022/07/12 09:55:58;;;;;;;0.83;0.80;;;;;;;30.81;22.19;99797.47;5052720;28;20188;-69
2022/07/12 09:58:27;;;;;;;5.43;1.10;;;;;;;30.62;22.48;99804.34;5052680;28;20201;-69
2022/07/12 10:00:55;;;;;;;2.20;0.97;;;;;;;29.87;22.47;99792.75;5052953;28;20582;-70
2022/07/12 10:03:24;;;;;;;3.47;1.13;;;;;;;29.82;22.07;99799.19;5053043;28;20582;-68
2022/07/12 10:05:53;;;;;;;1.60;0.83;;;;;;;29.86;23.20;99799.34;5053058;28;20200;-69
2022/07/12 10:08:22;;;;;;;2.67;0.87;;;;;;;30.19;23.23;99790.50;5052682;28;20199;-69
2022/07/12 10:10:50;;;;;;;1.07;1.00;;;;;;;30.70;22.27;99784.38;5052855;28;20203;-69
2022/07/12 10:13:18;;;;;;;2.63;1.00;;;;;;;30.81;21.36;99786.47;5053220;28;20275;-69
2022/07/12 10:15:47;;;;;;;1.97;1.00;;;;;;;30.36;21.83;99781.50;5052941;28;20607;-69
2022/07/12 10:18:19;;;;;;;3.00;0.87;;;;;;;30.23;21.70;99777.78;5052484;28;20830;-69
2022/07/12 10:20:47;;;;;;;0.70;0.70;;;;;;;30.37;21.95;99775.72;5052719;28;20201;-69
2022/07/12 10:23:34;;;;;;;2.73;0.87;;;;;;;30.64;21.36;99769.97;5052746;28;20246;-69
2022/07/12 10:26:01;;;;;;;3.70;0.97;;;;;;;30.04;21.73;99770.94;5053135;28;20188;-69
2022/07/12 10:29:01;;;;;;;3.63;1.87;;;;;;;30.34;21.85;99764.59;5052390;28;20219;-69
2022/07/12 10:31:31;;;;;;;10.00;1.60;;;;;;;30.35;22.01;99761.53;5052482;28;20200;-69
2022/07/12 10:34:15;;;;;;;3.53;0.93;;;;;;;30.05;22.99;99762.34;5052198;28;20231;-69
2022/07/12 10:37:10;;;;;;;2.87;1.10;;;;;;;30.47;22.85;99753.50;5052563;28;20212;-69
2022/07/12 10:39:38;;;;;;;4.67;1.30;;;;;;;30.70;22.37;99745.97;5048396;28;20284;-71
2022/07/12 10:42:15;;;;;;;6.20;1.23;;;;;;;30.83;22.20;99759.50;5052222;28;20228;-69
2022/07/12 10:44:45;;;;;;;1.27;1.10;;;;;;;30.82;23.02;99746.94;5052091;28;20743;-69
2022/07/12 10:47:14;;;;;;;6.60;1.30;;;;;;;30.81;22.39;99737.09;5051878;28;20200;-69
2022/07/12 10:49:47;;;;;;;6.97;1.50;;;;;;;30.15;22.75;99737.44;5052432;28;20197;-69
2022/07/12 10:52:16;;;;;;;5.43;1.20;;;;;;;29.92;22.54;99744.09;5051974;28;20185;-69
2022/07/12 10:55:09;;;;;;;4.37;1.17;;;;;;;29.99;23.15;99746.38;5052288;28;20203;-69
2022/07/12 10:57:40;;;;;;;4.43;1.10;;;;;;;29.85;23.04;99735.56;5051812;28;20602;-69
2022/07/12 11:00:08;;;;;;;16.83;2.40;;;;;;;30.10;23.24;99737.56;5052875;28;20246;-69
2022/07/12 11:02:35;;;;;;;2.93;1.13;;;;;;;30.00;23.52;99743.31;5051817;28;20189;-69
2022/07/12 11:05:03;;;;;;;10.33;1.57;;;;;;;29.90;23.40;99738.16;5050888;28;20240;-69
2022/07/12 11:07:30;;;;;;;4.17;1.57;;;;;;;29.69;23.75;99720.66;5051802;28;20196;-69
2022/07/12 11:09:58;;;;;;;2.37;1.10;;;;;;;29.40;24.08;99725.78;5052779;28;20204;-69
2022/07/12 11:12:29;;;;;;;4.50;1.40;;;;;;;29.76;24.08;99725.69;5051496;28;20260;-69
2022/07/12 11:14:56;;;;;;;3.83;1.40;;;;;;;30.26;23.81;99730.56;5051868;28;20254;-69
2022/07/12 11:17:26;;;;;;;2.17;1.00;;;;;;;30.37;23.60;99720.88;5051373;28;20691;-69
2022/07/12 11:20:04;;;;;;;2.20;1.10;;;;;;;30.44;23.95;99725.88;5051642;28;20188;-69
2022/07/12 11:22:32;;;;;;;3.40;1.00;;;;;;;30.81;23.68;99720.63;5051634;28;20220;-69
2022/07/12 11:25:00;;;;;;;4.30;0.80;;;;;;;31.14;23.49;99731.91;5051701;28;20204;-68
2022/07/12 11:27:28;;;;;;;3.40;0.97;;;;;;;31.44;23.36;99728.16;5051433;28;20192;-69
2022/07/12 11:29:58;;;;;;;1.23;1.00;;;;;;;31.33;22.34;99710.41;5051821;28;20266;-68
2022/07/12 11:32:34;;;;;;;2.93;1.00;;;;;;;31.40;22.66;99722.50;5051629;28;20279;-70
2022/07/12 11:35:01;;;;;;;2.87;1.00;;;;;;;31.53;23.05;99713.28;5052236;28;20194;-68
2022/07/12 11:37:28;;;;;;;1.30;1.13;;;;;;;31.59;23.02;99697.41;5051280;28;20692;-69
2022/07/12 11:39:55;;;;;;;3.33;1.20;;;;;;;31.60;22.70;99718.25;5052429;28;20254;-69
2022/07/12 11:42:23;;;;;;;3.37;0.90;;;;;;;31.43;23.07;99721.84;5055445;28;20232;-68